Time;durP1;ratioP1;P1;durP2;ratioP2;P2;SDS_P1;SDS_P2;PMS_P1;PMS_P2;Temp;Humidity;BMP_temperature;BMP_pressure;BME280_temperature;BME280_humidity;BME280_pressure;Samples;Min_cycle;Max_cycle;Signal;HPM_P1;HPM_P2
2023/03/08 00:00:19;;;;;;;2.00;0.87;;;-2.30;99.90;;;;;;4984218;28;20061;-71
2023/03/08 00:02:45;;;;;;;2.30;0.65;;;-2.30;99.90;;;;;;5006258;28;20048;-71
2023/03/08 00:05:11;;;;;;;2.10;0.20;;;-2.40;99.90;;;;;;5011764;28;20041;-71
2023/03/08 00:07:36;;;;;;;2.93;0.27;;;-2.40;99.90;;;;;;5009227;28;20402;-71
2023/03/08 00:10:04;;;;;;;3.83;0.20;;;-2.50;99.90;;;;;;4992491;28;20156;-71
2023/03/08 00:12:30;;;;;;;2.50;0.40;;;-2.40;99.90;;;;;;5003711;28;20046;-71
2023/03/08 00:14:56;;;;;;;3.27;0.10;;;-2.40;99.90;;;;;;5036074;28;20665;-71
2023/03/08 00:17:23;;;;;;;4.73;0.80;;;-2.40;99.90;;;;;;5002388;28;20052;-71
2023/03/08 00:19:50;;;;;;;3.17;0.20;;;-2.30;99.90;;;;;;4991342;28;20037;-71
2023/03/08 00:22:16;;;;;;;2.03;0.20;;;-2.20;99.90;;;;;;5004918;28;20042;-71
2023/03/08 00:24:42;;;;;;;2.70;0.52;;;-2.30;99.90;;;;;;5010002;28;20045;-71
2023/03/08 00:27:08;;;;;;;1.53;0.30;;;-2.20;99.90;;;;;;4993566;28;20040;-71
2023/03/08 00:29:34;;;;;;;3.20;0.13;;;-2.20;99.90;;;;;;5016137;28;20049;-71
2023/03/08 00:31:59;;;;;;;2.30;0.10;;;-2.30;99.90;;;;;;5018949;28;20099;-71
2023/03/08 00:34:25;;;;;;;0.30;0.10;;;-2.30;99.90;;;;;;4993410;28;20037;-71
2023/03/08 00:36:51;;;;;;;3.63;0.10;;;-2.40;99.90;;;;;;5012759;28;20442;-71
2023/03/08 00:39:17;;;;;;;1.47;0.10;;;-2.40;99.90;;;;;;5009615;28;20041;-71
2023/03/08 00:41:43;;;;;;;2.37;0.13;;;-2.40;99.90;;;;;;4998969;28;20041;-71
2023/03/08 00:44:09;;;;;;;4.53;0.30;;;-2.40;99.90;;;;;;5014164;28;20048;-71
2023/03/08 00:46:35;;;;;;;2.23;0.17;;;-2.40;99.90;;;;;;5031783;28;20040;-71
2023/03/08 00:49:03;;;;;;;2.38;0.15;;;-2.40;99.90;;;;;;5026876;28;20041;-71
2023/03/08 00:51:28;;;;;;;1.35;0.30;;;-2.50;99.90;;;;;;4991937;28;20042;-71
2023/03/08 00:53:57;;;;;;;1.30;0.30;;;-2.50;99.90;;;;;;5016206;28;20053;-71
2023/03/08 00:56:23;;;;;;;1.93;0.20;;;-2.50;99.90;;;;;;4959425;28;20042;-71
2023/03/08 00:58:49;;;;;;;1.77;0.20;;;-2.60;99.90;;;;;;5007600;28;20136;-71
2023/03/08 01:01:17;;;;;;;4.93;0.20;;;-2.60;99.90;;;;;;5002523;28;20545;-71
2023/03/08 01:03:43;;;;;;;2.05;0.20;;;-2.60;99.90;;;;;;5002742;28;20050;-71
2023/03/08 01:06:12;;;;;;;2.20;0.23;;;-2.60;99.90;;;;;;5014482;28;20610;-71
2023/03/08 01:08:40;;;;;;;2.60;0.15;;;-2.60;99.90;;;;;;5016683;28;20061;-71
2023/03/08 01:11:13;;;;;;;5.40;0.20;;;-2.60;99.90;;;;;;5008447;28;20045;-71
2023/03/08 01:13:38;;;;;;;3.83;0.25;;;-2.60;99.90;;;;;;5023745;28;20041;-71
2023/03/08 01:16:04;;;;;;;7.10;0.73;;;-2.60;99.90;;;;;;5022339;28;20175;-71
2023/03/08 01:18:30;;;;;;;2.83;0.50;;;-2.60;99.90;;;;;;5025474;28;20045;-71
2023/03/08 01:20:59;;;;;;;5.03;0.40;;;-2.50;99.90;;;;;;5021309;28;20100;-71
2023/03/08 01:23:25;;;;;;;3.58;0.40;;;-2.60;99.90;;;;;;5022005;28;20033;-71
2023/03/08 01:26:02;;;;;;;4.43;1.50;;;-2.60;99.90;;;;;;5035191;28;20486;-71
2023/03/08 01:28:28;;;;;;;0.60;0.20;;;-2.60;99.90;;;;;;5018943;28;20041;-71
2023/03/08 01:31:01;;;;;;;5.07;1.25;;;-2.60;99.90;;;;;;5032177;28;20049;-71
2023/03/08 01:33:27;;;;;;;3.60;0.20;;;-2.60;99.90;;;;;;5022680;28;20069;-71
2023/03/08 01:35:52;;;;;;;5.72;0.20;;;-2.60;99.90;;;;;;5004080;28;20041;-71
2023/03/08 01:38:18;;;;;;;3.37;0.20;;;-2.50;99.90;;;;;;4988476;28;20049;-71
2023/03/08 01:40:44;;;;;;;1.67;0.10;;;-2.50;99.90;;;;;;5001693;28;20045;-71
2023/03/08 01:43:23;;;;;;;2.43;0.20;;;-2.40;99.90;;;;;;5025871;28;20036;-71
2023/03/08 01:46:16;;;;;;;1.40;0.10;;;-2.40;99.90;;;;;;5014054;28;20069;-71
2023/03/08 01:48:51;;;;;;;4.63;0.22;;;-2.20;99.90;;;;;;5002930;28;20041;-71
2023/03/08 01:51:24;;;;;;;4.13;0.20;;;-2.00;99.90;;;;;;5029308;28;20057;-71
2023/03/08 01:53:51;;;;;;;2.50;0.20;;;-1.80;99.90;;;;;;5015470;28;20072;-71
2023/03/08 01:56:19;;;;;;;0.52;0.13;;;-1.80;99.90;;;;;;5021547;28;20401;-71
2023/03/08 01:58:47;;;;;;;4.57;0.55;;;-1.70;99.90;;;;;;5016826;28;20091;-71
2023/03/08 02:01:14;;;;;;;1.33;0.20;;;-1.80;99.90;;;;;;5017959;28;20397;-71
2023/03/08 02:03:40;;;;;;;2.65;0.30;;;-1.80;99.90;;;;;;5035710;28;20104;-71
2023/03/08 02:06:07;;;;;;;1.23;0.10;;;-1.90;99.90;;;;;;4989130;28;20064;-71
2023/03/08 02:08:33;;;;;;;3.33;0.20;;;-2.00;99.90;;;;;;5033610;28;20093;-71
2023/03/08 02:11:00;;;;;;;2.92;0.35;;;-2.00;99.90;;;;;;4998116;28;20080;-71
2023/03/08 02:13:26;;;;;;;2.92;0.22;;;-2.10;99.90;;;;;;5024573;28;20099;-71
2023/03/08 02:15:55;;;;;;;2.35;0.20;;;-2.20;99.90;;;;;;5003511;28;20045;-71
2023/03/08 02:18:21;;;;;;;5.82;0.20;;;-2.20;99.90;;;;;;5018625;28;20118;-71
2023/03/08 02:20:48;;;;;;;4.35;0.20;;;-2.40;99.90;;;;;;5033118;28;20045;-71
2023/03/08 02:23:20;;;;;;;3.47;0.10;;;-2.40;99.90;;;;;;5021319;28;20132;-71
2023/03/08 02:25:57;;;;;;;1.77;0.15;;;-2.60;99.90;;;;;;5017203;28;20033;-71
2023/03/08 02:28:25;;;;;;;5.43;0.20;;;-2.60;99.90;;;;;;5023223;28;20037;-71
2023/03/08 02:30:51;;;;;;;3.50;1.35;;;-2.80;99.90;;;;;;5025812;28;20103;-71
2023/03/08 02:33:17;;;;;;;0.50;0.13;;;-2.80;99.90;;;;;;5041775;28;20049;-71
2023/03/08 02:35:44;;;;;;;7.88;0.30;;;-2.90;99.90;;;;;;5000845;28;20106;-71
2023/03/08 02:38:11;;;;;;;1.45;0.38;;;-3.00;99.90;;;;;;5009073;28;20041;-71
2023/03/08 02:40:38;;;;;;;1.25;0.10;;;-3.00;99.90;;;;;;5017786;28;20103;-71
2023/03/08 02:43:04;;;;;;;2.03;0.40;;;-3.10;99.90;;;;;;5024575;28;20755;-71
2023/03/08 02:45:30;;;;;;;2.03;0.20;;;-3.20;99.90;;;;;;4992133;28;20033;-71
2023/03/08 02:47:56;;;;;;;2.65;0.15;;;-3.20;99.90;;;;;;5022702;28;20090;-71
2023/03/08 02:50:22;;;;;;;0.60;0.10;;;-3.30;99.90;;;;;;5024653;28;20044;-71
2023/03/08 02:52:47;;;;;;;1.20;0.10;;;-3.30;99.90;;;;;;5022937;28;20051;-71
2023/03/08 02:55:14;;;;;;;0.33;0.20;;;-3.40;99.90;;;;;;5017556;28;20044;-71
2023/03/08 02:57:40;;;;;;;1.50;0.10;;;-3.40;99.90;;;;;;4989918;28;20045;-71
2023/03/08 03:00:07;;;;;;;0.77;0.13;;;-3.40;99.90;;;;;;5007301;28;20048;-71
2023/03/08 03:02:33;;;;;;;0.77;0.10;;;-3.50;99.90;;;;;;4992084;28;20432;-71
2023/03/08 03:04:59;;;;;;;4.28;0.30;;;-3.50;99.90;;;;;;5004447;28;20044;-71
2023/03/08 03:07:24;;;;;;;1.80;0.10;;;-3.50;99.90;;;;;;5006417;28;20104;-71
2023/03/08 03:09:50;;;;;;;5.43;0.20;;;-3.50;99.90;;;;;;5006079;28;20111;-71
2023/03/08 03:12:16;;;;;;;1.63;0.20;;;-3.50;99.90;;;;;;5018056;28;20037;-71
2023/03/08 03:14:42;;;;;;;1.57;0.20;;;-3.50;99.90;;;;;;5000937;28;20080;-71
2023/03/08 03:17:07;;;;;;;0.63;0.20;;;-3.50;99.90;;;;;;5009681;28;20714;-71
2023/03/08 03:19:33;;;;;;;10.23;0.40;;;-3.60;99.90;;;;;;5021261;28;20048;-71
2023/03/08 03:21:59;;;;;;;4.50;0.23;;;-3.60;99.90;;;;;;5011403;28;20185;-71
2023/03/08 03:24:25;;;;;;;0.83;0.20;;;-3.60;99.90;;;;;;5000180;28;20115;-71
2023/03/08 03:26:50;;;;;;;3.50;0.80;;;-3.60;99.90;;;;;;5003974;28;20559;-71
2023/03/08 03:29:17;;;;;;;1.23;0.13;;;-3.60;99.90;;;;;;5005723;28;20115;-71
2023/03/08 03:31:43;;;;;;;1.58;0.20;;;-3.60;99.90;;;;;;4994162;28;20088;-71
2023/03/08 03:34:08;;;;;;;2.07;0.20;;;-3.60;99.90;;;;;;5021620;28;20125;-71
2023/03/08 03:36:34;;;;;;;2.30;0.20;;;-3.60;99.90;;;;;;5003763;28;20041;-71
2023/03/08 03:39:00;;;;;;;3.67;0.10;;;-3.60;99.90;;;;;;5026809;28;20053;-71
2023/03/08 03:41:26;;;;;;;3.63;0.30;;;-3.70;99.90;;;;;;5011661;28;20041;-71
2023/03/08 03:43:52;;;;;;;3.23;0.30;;;-3.60;99.90;;;;;;5004986;28;20071;-71
2023/03/08 03:46:19;;;;;;;1.27;0.20;;;-3.70;99.90;;;;;;5000656;28;20088;-71
2023/03/08 03:48:46;;;;;;;3.85;0.30;;;-3.70;99.90;;;;;;5018157;28;20033;-71
2023/03/08 03:51:18;;;;;;;3.47;0.20;;;-3.70;99.90;;;;;;5035200;28;20052;-71
2023/03/08 03:53:44;;;;;;;3.60;0.35;;;-3.80;99.90;;;;;;5017765;28;20048;-71
2023/03/08 03:56:16;;;;;;;1.67;0.32;;;-3.80;99.90;;;;;;4997262;28;20041;-71
2023/03/08 03:58:43;;;;;;;1.42;0.20;;;-3.80;99.90;;;;;;5021242;28;20072;-71
2023/03/08 04:01:13;;;;;;;1.38;0.20;;;-3.90;99.90;;;;;;5001067;28;20052;-71
2023/03/08 04:03:39;;;;;;;3.85;0.20;;;-3.90;99.90;;;;;;5018163;28;20110;-71
2023/03/08 04:06:13;;;;;;;1.37;0.17;;;-3.90;99.90;;;;;;5013976;28;20041;-71
2023/03/08 04:08:42;;;;;;;3.58;0.20;;;-3.90;99.90;;;;;;5038186;28;20503;-71
2023/03/08 04:11:15;;;;;;;2.75;0.20;;;-3.90;99.90;;;;;;5011820;28;20510;-71
2023/03/08 04:13:40;;;;;;;2.92;0.28;;;-3.90;99.90;;;;;;5023021;28;20048;-71
2023/03/08 04:16:20;;;;;;;5.07;0.40;;;-3.90;99.90;;;;;;5027545;28;20265;-71
2023/03/08 04:18:46;;;;;;;0.70;0.30;;;-3.90;99.90;;;;;;5037742;28;20523;-71
2023/03/08 04:21:12;;;;;;;2.35;0.30;;;-4.00;99.90;;;;;;5023924;28;20041;-71
2023/03/08 04:23:38;;;;;;;2.10;0.30;;;-3.90;99.90;;;;;;5012383;28;20033;-71
2023/03/08 04:26:05;;;;;;;2.93;0.20;;;-3.90;99.90;;;;;;5001391;28;20041;-71
2023/03/08 04:28:32;;;;;;;3.00;0.40;;;-3.90;99.90;;;;;;4993046;28;20052;-71
2023/03/08 04:30:59;;;;;;;0.70;0.30;;;-3.90;99.90;;;;;;5009199;28;20048;-71
2023/03/08 04:33:24;;;;;;;1.00;0.20;;;-3.90;99.90;;;;;;5026248;28;20041;-71
2023/03/08 04:35:50;;;;;;;4.63;0.30;;;-3.80;99.90;;;;;;5012247;28;20085;-71
2023/03/08 04:38:16;;;;;;;2.63;0.20;;;-3.70;99.90;;;;;;5023715;28;20101;-71
2023/03/08 04:41:04;;;;;;;2.20;0.30;;;-3.70;99.90;;;;;;5010793;28;20038;-71
2023/03/08 04:43:32;;;;;;;2.08;0.20;;;-3.70;99.90;;;;;;5017008;28;20431;-71
2023/03/08 04:45:59;;;;;;;3.33;0.30;;;-3.70;99.90;;;;;;5008299;28;20041;-72
2023/03/08 04:48:25;;;;;;;1.25;0.20;;;-3.60;99.90;;;;;;5013944;28;20033;-72
2023/03/08 04:50:55;;;;;;;2.53;0.30;;;-3.70;99.90;;;;;;5036472;28;20415;-72
2023/03/08 04:53:21;;;;;;;1.17;0.30;;;-3.70;99.90;;;;;;5016209;28;20052;-71
2023/03/08 04:55:48;;;;;;;1.13;0.32;;;-3.70;99.90;;;;;;5019024;28;20040;-71
2023/03/08 04:58:17;;;;;;;1.42;0.40;;;-3.60;99.90;;;;;;5038225;28;20653;-71
2023/03/08 05:00:43;;;;;;;2.40;0.30;;;-3.70;99.90;;;;;;5017268;28;20187;-71
2023/03/08 05:03:09;;;;;;;1.87;0.30;;;-3.70;99.90;;;;;;5016508;28;20091;-72
2023/03/08 05:05:35;;;;;;;2.90;0.30;;;-3.70;99.90;;;;;;5015190;28;20033;-72
2023/03/08 05:08:04;;;;;;;3.90;0.63;;;-3.70;99.90;;;;;;5003798;28;20497;-72
2023/03/08 05:10:30;;;;;;;2.88;0.40;;;-3.60;99.90;;;;;;5011440;28;20068;-72
2023/03/08 05:12:56;;;;;;;2.00;0.57;;;-3.60;99.90;;;;;;5007729;28;20531;-72
2023/03/08 05:15:22;;;;;;;4.13;0.60;;;-3.60;99.90;;;;;;5045855;28;20498;-72
2023/03/08 05:17:49;;;;;;;2.20;0.40;;;-3.50;99.90;;;;;;5018533;28;20033;-72
2023/03/08 05:20:17;;;;;;;3.58;0.65;;;-3.40;99.90;;;;;;5013410;28;20049;-72
2023/03/08 05:22:43;;;;;;;2.47;0.60;;;-3.40;99.90;;;;;;5009389;28;20063;-72
2023/03/08 05:25:09;;;;;;;3.90;1.00;;;-3.40;99.90;;;;;;5006316;28;20042;-72
2023/03/08 05:27:37;;;;;;;4.30;1.02;;;-3.30;99.90;;;;;;5005421;28;20044;-72
2023/03/08 05:30:06;;;;;;;3.60;1.00;;;-3.30;99.90;;;;;;5026816;28;20069;-71
2023/03/08 05:32:32;;;;;;;4.53;1.50;;;-3.20;99.90;;;;;;5012263;28;20402;-71
2023/03/08 05:34:57;;;;;;;6.10;1.47;;;-3.20;99.90;;;;;;5000809;28;20041;-71
2023/03/08 05:37:24;;;;;;;4.80;0.90;;;-3.20;99.90;;;;;;5013263;28;20132;-71
2023/03/08 05:39:51;;;;;;;5.53;1.30;;;-3.20;99.90;;;;;;5000780;28;20127;-71
2023/03/08 05:42:18;;;;;;;3.95;1.20;;;-3.20;99.90;;;;;;5006922;28;20045;-71
2023/03/08 05:44:45;;;;;;;3.28;0.68;;;-3.20;99.90;;;;;;5010885;28;20052;-71
2023/03/08 05:47:11;;;;;;;5.88;1.13;;;-3.20;99.90;;;;;;4993795;28;20065;-71
2023/03/08 05:49:38;;;;;;;5.55;0.55;;;-3.20;99.90;;;;;;5029320;28;20071;-71
2023/03/08 05:52:04;;;;;;;6.80;0.77;;;-3.20;99.90;;;;;;4995939;28;20492;-71
2023/03/08 05:54:30;;;;;;;3.70;0.90;;;-3.20;99.90;;;;;;5027539;28;20099;-71
2023/03/08 05:56:56;;;;;;;2.07;1.00;;;-3.20;99.90;;;;;;5010333;28;20076;-71
2023/03/08 05:59:22;;;;;;;7.60;1.60;;;-3.30;99.90;;;;;;5006090;28;20051;-71
2023/03/08 06:01:48;;;;;;;6.07;1.10;;;-3.30;99.90;;;;;;4998945;28;20053;-71
2023/03/08 06:04:13;;;;;;;5.00;0.90;;;-3.30;99.90;;;;;;5018247;28;20144;-71
2023/03/08 06:06:39;;;;;;;4.63;0.70;;;-3.40;99.90;;;;;;5032869;28;20041;-71
2023/03/08 06:09:05;;;;;;;6.47;0.93;;;-3.40;99.90;;;;;;5020871;28;20054;-71
2023/03/08 06:11:31;;;;;;;4.83;1.07;;;-3.40;99.90;;;;;;5005141;28;20048;-71
2023/03/08 06:14:04;;;;;;;5.30;1.00;;;-3.40;99.90;;;;;;5027777;28;20048;-71
2023/03/08 06:16:29;;;;;;;2.70;1.00;;;-3.40;99.90;;;;;;5011768;28;20375;-71
2023/03/08 06:18:55;;;;;;;3.40;0.70;;;-3.40;99.90;;;;;;5008627;28;20086;-71
2023/03/08 06:21:22;;;;;;;3.20;0.63;;;-3.40;99.90;;;;;;5006214;28;20109;-71
2023/03/08 06:23:50;;;;;;;5.72;1.02;;;-3.40;99.90;;;;;;5021354;28;20477;-71
2023/03/08 06:26:16;;;;;;;5.60;2.03;;;-3.40;99.90;;;;;;5012050;28;20033;-71
2023/03/08 06:28:42;;;;;;;6.00;1.85;;;-3.40;99.90;;;;;;5032219;28;20034;-71
2023/03/08 06:31:11;;;;;;;3.23;1.57;;;-3.30;99.90;;;;;;5036555;28;20068;-71
2023/03/08 06:33:37;;;;;;;4.82;2.83;;;-3.30;99.90;;;;;;5019275;28;20049;-71
2023/03/08 06:36:10;;;;;;;4.93;1.57;;;-3.20;99.90;;;;;;5014226;28;20060;-71
2023/03/08 06:38:39;;;;;;;6.63;1.20;;;-3.20;99.90;;;;;;5021723;28;20132;-71
2023/03/08 06:41:06;;;;;;;2.65;1.42;;;-3.10;99.90;;;;;;5020313;28;20102;-71
2023/03/08 06:43:34;;;;;;;3.88;1.33;;;-3.00;99.90;;;;;;5017895;28;20045;-71
2023/03/08 06:46:11;;;;;;;5.97;1.30;;;-2.90;99.90;;;;;;5022908;28;20037;-71
2023/03/08 06:48:37;;;;;;;4.90;2.00;;;-2.80;99.90;;;;;;5016826;28;20071;-71
2023/03/08 06:51:04;;;;;;;6.07;1.50;;;-2.80;99.90;;;;;;5031548;28;20092;-71
2023/03/08 06:53:31;;;;;;;8.35;1.13;;;-2.70;99.90;;;;;;5034053;28;20052;-71
2023/03/08 06:55:57;;;;;;;7.25;1.45;;;-2.60;99.90;;;;;;5052677;28;20045;-71
2023/03/08 06:58:23;;;;;;;4.87;0.97;;;-2.50;99.90;;;;;;5005513;28;20048;-71
2023/03/08 07:00:49;;;;;;;6.88;1.13;;;-2.50;99.90;;;;;;5014494;28;20048;-71
2023/03/08 07:03:16;;;;;;;4.00;1.00;;;-2.40;99.90;;;;;;4995249;28;20132;-71
2023/03/08 07:05:41;;;;;;;5.60;0.88;;;-2.30;99.90;;;;;;5010246;28;20034;-71
2023/03/08 07:08:08;;;;;;;2.87;1.10;;;-2.20;99.90;;;;;;5004907;28;20103;-71
2023/03/08 07:10:33;;;;;;;6.00;0.95;;;-2.10;99.90;;;;;;5026461;28;20076;-71
2023/03/08 07:12:59;;;;;;;7.87;1.23;;;-2.00;99.90;;;;;;4994106;28;20078;-71
2023/03/08 07:15:25;;;;;;;3.67;0.83;;;-1.90;99.90;;;;;;5030599;28;20037;-71
2023/03/08 07:17:55;;;;;;;3.27;0.90;;;-1.80;99.90;;;;;;5006317;28;20044;-72
2023/03/08 07:20:24;;;;;;;5.22;1.02;;;-1.70;99.90;;;;;;5011371;28;20067;-72
2023/03/08 07:23:00;;;;;;;6.63;1.40;;;-1.70;99.90;;;;;;5011375;28;20046;-72
2023/03/08 07:25:28;;;;;;;5.20;1.45;;;-1.60;99.90;;;;;;5014830;28;20084;-72
2023/03/08 07:27:53;;;;;;;5.38;1.20;;;-1.50;99.90;;;;;;5019371;28;20048;-72
2023/03/08 07:30:19;;;;;;;3.33;1.23;;;-1.40;99.90;;;;;;5020282;28;20046;-72
2023/03/08 07:32:45;;;;;;;3.20;1.30;;;-1.30;99.90;;;;;;4994972;28;20046;-72
2023/03/08 07:35:13;;;;;;;6.33;1.97;;;-1.20;99.90;;;;;;5017728;28;20038;-72
2023/03/08 07:37:44;;;;;;;5.30;1.90;;;-1.10;99.90;;;;;;5036451;28;20607;-72
2023/03/08 07:40:11;;;;;;;7.75;1.83;;;-1.00;99.90;;;;;;5020319;28;20052;-72
2023/03/08 07:42:37;;;;;;;3.75;1.70;;;-0.80;99.90;;;;;;5024424;28;20053;-72
2023/03/08 07:45:03;;;;;;;3.87;1.50;;;-0.70;99.90;;;;;;5033368;28;20044;-72
2023/03/08 07:47:29;;;;;;;6.03;1.50;;;-0.60;99.90;;;;;;5033778;28;20070;-72
2023/03/08 07:49:54;;;;;;;3.17;1.60;;;-0.50;99.90;;;;;;4997089;28;20096;-72
2023/03/08 07:52:20;;;;;;;4.57;1.50;;;-0.40;99.90;;;;;;5016915;28;20038;-72
2023/03/08 07:54:46;;;;;;;4.83;1.20;;;-0.30;99.90;;;;;;5015970;28;20049;-72
2023/03/08 07:57:19;;;;;;;3.72;1.80;;;-0.20;99.90;;;;;;5003300;28;20064;-72
2023/03/08 07:59:45;;;;;;;7.43;1.77;;;-0.10;99.90;;;;;;4997349;28;20145;-72
2023/03/08 08:02:14;;;;;;;3.90;1.70;;;0.00;99.90;;;;;;5012894;28;20109;-72
2023/03/08 08:04:40;;;;;;;5.70;1.95;;;0.10;99.90;;;;;;4999324;28;20034;-72
2023/03/08 08:07:10;;;;;;;5.47;2.28;;;0.20;99.90;;;;;;4998284;28;20080;-72
2023/03/08 08:09:36;;;;;;;5.95;2.00;;;0.20;99.90;;;;;;5003142;28;20125;-72
2023/03/08 08:12:05;;;;;;;3.67;1.60;;;0.30;99.90;;;;;;5020540;28;20052;-72
2023/03/08 08:14:31;;;;;;;5.50;2.30;;;0.40;99.90;;;;;;5018000;28;20052;-72
2023/03/08 08:16:57;;;;;;;6.90;2.03;;;0.50;99.90;;;;;;5016805;28;20045;-71
2023/03/08 08:19:23;;;;;;;5.40;2.03;;;0.50;99.90;;;;;;5035082;28;20504;-71
2023/03/08 08:21:49;;;;;;;5.30;2.17;;;0.50;99.90;;;;;;5025876;28;20108;-71
2023/03/08 08:24:14;;;;;;;8.10;2.77;;;0.60;99.90;;;;;;5000202;28;20535;-71
2023/03/08 08:26:41;;;;;;;4.47;3.40;;;0.70;99.90;;;;;;5003206;28;20038;-71
2023/03/08 08:29:06;;;;;;;7.38;3.40;;;0.80;99.90;;;;;;4987869;28;20106;-71
2023/03/08 08:31:33;;;;;;;6.17;3.87;;;0.90;99.90;;;;;;5011722;28;20061;-71
2023/03/08 08:34:00;;;;;;;8.52;4.25;;;0.90;99.90;;;;;;5027864;28;20045;-71
2023/03/08 08:36:26;;;;;;;8.63;4.05;;;1.00;99.90;;;;;;5006824;28;20052;-71
2023/03/08 08:38:53;;;;;;;7.30;4.55;;;1.00;99.90;;;;;;5009696;28;20127;-71
2023/03/08 08:41:20;;;;;;;8.93;5.55;;;1.10;99.90;;;;;;5032810;28;20045;-71
2023/03/08 08:43:47;;;;;;;10.63;6.90;;;1.10;99.90;;;;;;5034073;28;20120;-71
2023/03/08 08:46:13;;;;;;;17.08;8.05;;;1.10;99.90;;;;;;4991243;28;20045;-71
2023/03/08 08:48:40;;;;;;;13.38;8.05;;;1.10;99.90;;;;;;5037013;28;20101;-71
2023/03/08 08:51:08;;;;;;;14.07;8.20;;;1.20;99.90;;;;;;5026737;28;20063;-71
2023/03/08 08:53:34;;;;;;;8.18;5.97;;;1.20;99.90;;;;;;5022938;28;20081;-71
2023/03/08 08:56:27;;;;;;;8.65;5.05;;;1.20;99.90;;;;;;5020636;28;20042;-71
2023/03/08 08:58:58;;;;;;;5.93;4.50;;;1.20;99.90;;;;;;5019346;28;20063;-71
2023/03/08 09:01:30;;;;;;;7.70;4.57;;;1.30;99.90;;;;;;5032152;28;20047;-71
2023/03/08 09:03:56;;;;;;;7.72;4.18;;;1.30;99.90;;;;;;5011506;28;20053;-71
2023/03/08 09:06:23;;;;;;;6.05;4.28;;;1.40;99.90;;;;;;5024062;28;20038;-71
2023/03/08 09:08:50;;;;;;;6.95;3.58;;;1.50;99.90;;;;;;5011372;28;20049;-71
2023/03/08 09:11:16;;;;;;;5.22;4.05;;;1.60;99.90;;;;;;5028158;28;20375;-71
2023/03/08 09:13:42;;;;;;;6.15;4.00;;;1.60;99.90;;;;;;5032359;28;20060;-71
2023/03/08 09:16:29;;;;;;;6.83;4.90;;;1.60;99.90;;;;;;5007730;28;20506;-71
2023/03/08 09:18:56;;;;;;;7.07;4.63;;;1.70;99.90;;;;;;5023589;28;20104;-71
2023/03/08 09:21:23;;;;;;;7.43;4.85;;;1.70;99.90;;;;;;5018111;28;20040;-71
2023/03/08 09:23:49;;;;;;;6.22;4.63;;;1.70;99.90;;;;;;5020071;28;20037;-71
2023/03/08 09:26:15;;;;;;;8.53;5.23;;;1.80;99.90;;;;;;5017145;28;20132;-71
2023/03/08 09:28:40;;;;;;;9.97;4.87;;;1.90;99.90;;;;;;5013343;28;20283;-71
2023/03/08 09:31:11;;;;;;;7.47;4.83;;;1.90;99.90;;;;;;5010284;28;20041;-71
2023/03/08 09:33:47;;;;;;;6.63;5.30;;;2.00;99.90;;;;;;5007121;28;20079;-71
2023/03/08 09:36:14;;;;;;;22.95;6.10;;;2.10;99.90;;;;;;5002211;28;20460;-72
2023/03/08 09:38:40;;;;;;;7.47;5.00;;;2.20;99.90;;;;;;5022247;28;20049;-72
2023/03/08 09:41:20;;;;;;;7.13;5.55;;;2.30;99.90;;;;;;4995210;28;20045;-72
2023/03/08 09:44:04;;;;;;;6.25;4.80;;;2.40;99.90;;;;;;5006133;28;20037;-72
2023/03/08 09:46:37;;;;;;;7.05;4.55;;;2.50;99.90;;;;;;5038267;28;20037;-72
2023/03/08 09:49:14;;;;;;;5.93;4.10;;;2.50;99.90;;;;;;5027337;28;20081;-72
2023/03/08 09:51:44;;;;;;;5.22;4.32;;;2.70;99.90;;;;;;5034656;28;20123;-72
2023/03/08 09:54:15;;;;;;;6.13;4.18;;;2.80;99.90;;;;;;5008959;28;20119;-72
2023/03/08 09:56:49;;;;;;;9.88;3.72;;;2.90;99.90;;;;;;5015148;28;20041;-72
2023/03/08 09:59:33;;;;;;;9.27;3.00;;;3.00;99.90;;;;;;5027224;28;20135;-72
2023/03/08 10:02:22;;;;;;;7.50;3.20;;;3.10;99.90;;;;;;5027874;28;20293;-72
2023/03/08 10:05:20;;;;;;;6.70;3.00;;;3.20;99.90;;;;;;5024596;28;20042;-72
2023/03/08 10:07:49;;;;;;;5.15;2.83;;;3.40;99.90;;;;;;5016467;28;20099;-72
2023/03/08 10:10:30;;;;;;;5.93;2.80;;;3.50;99.90;;;;;;5022476;28;20136;-72
2023/03/08 10:13:24;;;;;;;4.40;2.20;;;3.60;99.90;;;;;;5020186;28;20045;-72
2023/03/08 10:15:52;;;;;;;4.35;2.53;;;3.70;99.90;;;;;;5003713;28;20140;-72
2023/03/08 10:18:30;;;;;;;2.58;1.80;;;3.80;99.90;;;;;;5015194;28;20612;-72
2023/03/08 10:21:00;;;;;;;5.25;1.75;;;4.00;99.90;;;;;;5024457;28;20100;-72
2023/03/08 10:23:30;;;;;;;3.17;1.25;;;4.20;99.90;;;;;;5000907;28;20037;-72
2023/03/08 10:25:55;;;;;;;1.30;1.10;;;4.40;99.90;;;;;;5005717;28;20040;-70
2023/03/08 10:28:26;;;;;;;1.67;0.80;;;4.60;99.90;;;;;;5008523;28;20105;-70
2023/03/08 10:30:57;;;;;;;1.70;1.05;;;4.80;99.90;;;;;;5021402;28;20085;-70
2023/03/08 10:33:29;;;;;;;5.45;1.30;;;4.90;99.90;;;;;;5031922;28;20083;-70
2023/03/08 10:36:05;;;;;;;4.95;0.90;;;5.00;99.90;;;;;;5026002;28;20093;-70
2023/03/08 10:38:35;;;;;;;4.07;1.05;;;5.00;99.90;;;;;;5013702;28;20132;-70
2023/03/08 10:41:13;;;;;;;4.05;1.08;;;5.00;99.90;;;;;;5019444;28;20053;-70
2023/03/08 10:43:51;;;;;;;2.90;0.90;;;5.10;99.90;;;;;;5018487;28;20056;-70
2023/03/08 10:46:22;;;;;;;2.13;0.70;;;5.10;99.90;;;;;;5018620;28;20052;-70
2023/03/08 10:48:48;;;;;;;1.90;0.73;;;5.30;99.90;;;;;;5039007;28;20038;-70
2023/03/08 10:51:19;;;;;;;3.00;0.95;;;5.20;99.90;;;;;;4987606;28;20416;-70
2023/03/08 10:53:55;;;;;;;2.25;0.65;;;5.20;99.90;;;;;;5010984;28;20056;-70
2023/03/08 10:56:38;;;;;;;2.53;1.10;;;5.20;99.90;;;;;;5017627;28;20136;-70
2023/03/08 10:59:05;;;;;;;3.75;1.17;;;5.20;99.90;;;;;;5012437;28;20156;-70
2023/03/08 11:01:34;;;;;;;6.65;1.10;;;5.20;99.90;;;;;;5033712;28;20045;-70
2023/03/08 11:04:04;;;;;;;3.78;0.90;;;5.20;99.90;;;;;;5029477;28;20472;-70
2023/03/08 11:06:30;;;;;;;3.40;0.98;;;5.10;99.90;;;;;;5040615;28;20476;-70
2023/03/08 11:08:59;;;;;;;3.08;1.17;;;5.10;99.90;;;;;;5003111;28;20061;-70
2023/03/08 11:11:26;;;;;;;3.25;0.80;;;5.20;99.90;;;;;;5003513;28;20103;-70
2023/03/08 11:13:53;;;;;;;2.63;0.68;;;5.20;99.90;;;;;;5016098;28;20136;-70
2023/03/08 11:16:46;;;;;;;2.85;0.90;;;5.20;99.90;;;;;;5035655;28;20049;-70
2023/03/08 11:19:23;;;;;;;3.38;0.93;;;5.30;99.90;;;;;;5051971;28;20076;-70
2023/03/08 11:22:19;;;;;;;3.20;0.90;;;5.40;99.90;;;;;;5025621;28;20058;-70
2023/03/08 11:25:08;;;;;;;2.78;0.68;;;5.30;99.90;;;;;;5032956;28;20532;-72
2023/03/08 11:28:05;;;;;;;2.15;0.60;;;5.30;99.90;;;;;;5022654;28;20064;-71
2023/03/08 11:31:03;;;;;;;0.77;0.30;;;5.20;99.90;;;;;;5030722;28;20191;-72
2023/03/08 11:33:32;;;;;;;1.50;0.38;;;5.20;99.90;;;;;;5018311;28;20077;-72
2023/03/08 11:36:11;;;;;;;2.75;0.40;;;5.30;99.90;;;;;;5045354;28;20103;-72
2023/03/08 11:38:39;;;;;;;2.17;0.60;;;5.30;99.90;;;;;;5038592;28;20052;-72
2023/03/08 11:41:38;;;;;;;2.70;0.30;;;5.30;99.90;;;;;;5024818;28;20041;-72
2023/03/08 11:44:20;;;;;;;5.35;0.70;;;5.20;99.90;;;;;;5027197;28;20049;-71
2023/03/08 11:47:00;;;;;;;1.90;0.52;;;5.10;99.90;;;;;;5027838;28;20044;-72
2023/03/08 11:49:46;;;;;;;1.42;0.47;;;5.10;99.90;;;;;;5058726;28;20091;-72
2023/03/08 11:52:33;;;;;;;3.25;0.50;;;5.20;99.90;;;;;;5012168;28;20053;-72
2023/03/08 11:55:36;;;;;;;3.58;0.40;;;5.20;99.90;;;;;;5033936;28;20051;-72
2023/03/08 11:58:23;;;;;;;1.55;0.17;;;5.20;99.90;;;;;;5028984;28;20046;-72
2023/03/08 12:00:53;;;;;;;1.90;0.28;;;5.30;99.90;;;;;;5040439;28;20034;-72
2023/03/08 12:03:33;;;;;;;1.73;0.30;;;5.30;99.90;;;;;;5025240;28;20067;-72
2023/03/08 12:06:08;;;;;;;3.05;0.45;;;5.40;99.90;;;;;;5034218;28;20073;-72
2023/03/08 12:08:58;;;;;;;1.98;0.20;;;5.50;99.90;;;;;;5026417;28;20048;-73
2023/03/08 12:11:26;;;;;;;2.63;0.50;;;5.60;99.90;;;;;;5030867;28;20048;-73
2023/03/08 12:14:17;;;;;;;4.15;0.55;;;5.50;99.90;;;;;;5026601;28;20491;-72
2023/03/08 12:16:47;;;;;;;2.13;0.40;;;5.50;99.90;;;;;;5059650;28;20060;-72
2023/03/08 12:19:29;;;;;;;3.75;0.45;;;5.60;99.90;;;;;;5037788;28;20053;-72
2023/03/08 12:22:07;;;;;;;3.55;0.52;;;5.60;99.90;;;;;;5042483;28;20048;-72
2023/03/08 12:24:39;;;;;;;3.70;0.50;;;5.60;99.90;;;;;;5050298;28;20262;-72
2023/03/08 12:27:38;;;;;;;3.05;0.93;;;5.80;99.90;;;;;;5020070;28;20169;-72
2023/03/08 12:30:09;;;;;;;1.83;0.40;;;5.80;99.90;;;;;;5038408;28;20432;-72
2023/03/08 12:32:41;;;;;;;1.23;0.30;;;5.90;99.90;;;;;;5020711;28;20400;-73
2023/03/08 12:35:25;;;;;;;1.98;0.30;;;5.90;99.90;;;;;;5044541;28;20084;-73
2023/03/08 12:38:17;;;;;;;2.20;0.40;;;5.90;99.90;;;;;;5044862;28;20112;-73
2023/03/08 12:41:02;;;;;;;4.07;0.50;;;5.80;99.90;;;;;;5006718;28;20045;-73
2023/03/08 12:43:31;;;;;;;1.27;0.40;;;5.70;99.90;;;;;;5045289;28;20041;-72
2023/03/08 12:46:05;;;;;;;4.28;0.50;;;5.70;99.90;;;;;;5024894;28;20042;-73
2023/03/08 12:48:45;;;;;;;2.80;0.40;;;5.60;99.90;;;;;;5038443;28;20041;-73
2023/03/08 12:51:11;;;;;;;2.83;0.70;;;5.40;99.90;;;;;;5038746;28;20092;-73
2023/03/08 12:53:55;;;;;;;1.70;0.50;;;5.20;99.90;;;;;;5021592;28;20490;-73
2023/03/08 12:56:37;;;;;;;1.42;0.35;;;5.20;99.90;;;;;;5029557;28;20079;-73
2023/03/08 12:59:37;;;;;;;2.97;0.47;;;5.20;99.90;;;;;;5047413;28;20045;-73
2023/03/08 13:02:29;;;;;;;3.47;0.50;;;5.20;99.90;;;;;;5023017;28;20445;-72
2023/03/08 13:05:19;;;;;;;1.88;0.30;;;5.10;99.90;;;;;;5024745;28;20055;-72